createdAt,value
2023-04-02T00:00:25.183Z,8.2773
2023-04-02T00:01:33.241Z,8.4211
2023-04-02T00:02:41.373Z,8.4321
2023-04-02T00:03:49.429Z,8.3619
2023-04-02T00:04:57.433Z,8.3608
2023-04-02T00:06:05.495Z,8.3177
2023-04-02T00:07:13.537Z,8.4419
2023-04-02T00:08:21.556Z,8.4111
2023-04-02T00:09:29.639Z,8.2589
2023-04-02T00:10:37.689Z,8.2462
2023-04-02T00:11:45.739Z,8.3848
2023-04-02T00:12:53.809Z,8.4064
2023-04-02T00:14:01.850Z,8.4337
2023-04-02T00:15:09.934Z,8.4472
2023-04-02T00:16:18.097Z,8.3993
2023-04-02T00:17:26.135Z,8.4121
2023-04-02T00:18:34.173Z,8.3627
2023-04-02T00:19:42.322Z,8.3152
2023-04-02T00:20:50.352Z,8.2334
2023-04-02T00:21:58.478Z,8.2233
2023-04-02T00:23:06.452Z,8.3143
2023-04-02T00:24:14.526Z,8.4978
2023-04-02T00:25:22.638Z,8.5374
2023-04-02T00:26:30.598Z,8.5775
2023-04-02T00:27:38.592Z,8.5632
2023-04-02T00:28:46.787Z,8.5636
2023-04-02T00:29:54.760Z,8.4346
2023-04-02T00:31:02.957Z,8.5420
2023-04-02T00:32:11.077Z,8.5630
2023-04-02T00:33:19.076Z,8.5031
2023-04-02T00:34:27.086Z,8.5307
2023-04-02T00:35:35.361Z,8.4590
2023-04-02T00:36:43.277Z,8.4092
2023-04-02T00:37:51.353Z,8.3188
2023-04-02T00:38:59.358Z,8.4976
2023-04-02T00:40:07.519Z,8.4878
2023-04-02T00:41:15.480Z,8.4302
2023-04-02T00:42:23.515Z,8.4501
2023-04-02T00:43:31.587Z,8.4451
2023-04-02T00:44:39.591Z,8.4957
2023-04-02T00:45:47.694Z,8.5163
2023-04-02T00:46:55.832Z,8.4445
2023-04-02T00:48:03.979Z,8.3822
2023-04-02T00:49:12.028Z,8.3270
2023-04-02T00:50:19.999Z,8.3593
2023-04-02T00:51:28.101Z,8.2591
2023-04-02T00:52:36.206Z,8.1914
2023-04-02T00:53:44.280Z,8.1720
2023-04-02T00:54:52.330Z,8.1947
2023-04-02T00:56:00.302Z,8.2549
2023-04-02T00:57:08.367Z,8.2795
2023-04-02T00:58:16.415Z,8.2582
2023-04-02T00:59:24.469Z,8.2742
2023-04-02T01:00:32.719Z,8.3749
2023-04-02T01:01:40.775Z,8.4224
2023-04-02T01:02:48.867Z,8.4192
2023-04-02T01:03:56.808Z,8.2750
2023-04-02T01:05:04.924Z,8.3026
2023-04-02T01:06:13.036Z,8.4214
2023-04-02T01:07:20.997Z,8.3587
2023-04-02T01:08:29.051Z,8.3629
2023-04-02T01:09:37.171Z,8.3534
2023-04-02T01:10:45.111Z,8.3036
2023-04-02T01:11:53.209Z,8.2610
2023-04-02T01:13:01.239Z,8.2713
2023-04-02T01:14:09.328Z,8.2252
2023-04-02T01:15:17.460Z,8.2572
2023-04-02T01:16:25.875Z,8.2645
2023-04-02T01:17:33.699Z,8.2233
2023-04-02T01:18:41.668Z,8.2462
2023-04-02T01:19:49.710Z,8.2551
2023-04-02T01:20:57.795Z,8.2948
2023-04-02T01:22:05.877Z,8.4262
2023-04-02T01:23:13.974Z,8.5256
2023-04-02T01:24:21.952Z,8.4798
2023-04-02T01:25:29.962Z,8.3425
2023-04-02T01:26:38.013Z,8.4094
2023-04-02T01:27:46.134Z,8.3392
2023-04-02T01:28:54.146Z,8.2689
2023-04-02T01:30:02.401Z,8.2555
2023-04-02T01:31:10.489Z,8.2364
2023-04-02T01:32:18.448Z,8.2773
2023-04-02T01:33:26.556Z,8.2298
2023-04-02T01:34:34.680Z,8.2223
2023-04-02T01:35:42.753Z,8.2633
2023-04-02T01:36:50.709Z,8.2858
2023-04-02T01:37:58.840Z,8.3749
2023-04-02T01:39:06.875Z,8.4258
2023-04-02T01:40:14.849Z,8.4047
2023-04-02T01:41:22.868Z,8.4293
2023-04-02T01:42:30.949Z,8.4430
2023-04-02T01:43:38.990Z,8.4348
2023-04-02T01:44:47.218Z,8.4443
2023-04-02T01:45:55.265Z,8.4150
2023-04-02T01:47:03.309Z,8.4010
2023-04-02T01:48:11.358Z,8.4550
2023-04-02T01:49:19.503Z,8.4337
2023-04-02T01:50:27.588Z,8.4957
2023-04-02T01:51:35.633Z,8.4689
2023-04-02T01:52:43.596Z,8.4615
2023-04-02T01:53:51.719Z,8.3099
2023-04-02T01:54:59.674Z,8.4407
2023-04-02T01:56:07.790Z,8.4693
2023-04-02T01:57:15.833Z,8.4588
2023-04-02T01:58:23.897Z,8.4037
2023-04-02T01:59:32.001Z,8.2940
2023-04-02T02:00:40.180Z,8.2502
2023-04-02T02:01:48.209Z,8.3053
2023-04-02T02:02:56.324Z,8.3640
2023-04-02T02:04:04.276Z,8.2858
2023-04-02T02:05:12.380Z,8.3329
2023-04-02T02:06:20.390Z,8.4031
2023-04-02T02:07:28.539Z,8.3614
2023-04-02T02:08:36.613Z,8.4163
2023-04-02T02:09:44.678Z,8.4600
2023-04-02T02:10:52.687Z,8.4857
2023-04-02T02:12:00.735Z,8.4531
2023-04-02T02:13:08.870Z,8.3778
2023-04-02T02:14:16.819Z,8.4300
2023-04-02T02:15:24.800Z,8.4575
2023-04-02T02:16:32.969Z,8.4125
2023-04-02T02:17:41.036Z,8.3631
2023-04-02T02:18:49.187Z,8.3776
2023-04-02T02:19:57.204Z,8.4651
2023-04-02T02:21:05.241Z,8.3793
2023-04-02T02:22:13.293Z,8.3070
2023-04-02T02:23:21.362Z,8.4338
2023-04-02T02:24:29.496Z,8.3825
2023-04-02T02:25:37.875Z,8.2111
2023-04-02T02:26:45.557Z,8.1159
2023-04-02T02:27:53.643Z,8.1598
2023-04-02T02:29:01.629Z,8.1472
2023-04-02T02:30:09.723Z,8.3511
2023-04-02T02:31:17.907Z,8.2599
2023-04-02T02:32:25.902Z,8.1971
2023-04-02T02:33:33.947Z,8.1893
2023-04-02T02:34:41.998Z,8.1779
2023-04-02T02:35:50.187Z,8.1800
2023-04-02T02:36:58.208Z,8.1294
2023-04-02T02:38:06.220Z,8.1397
2023-04-02T02:39:14.254Z,8.2292
2023-04-02T02:40:22.334Z,8.1750
2023-04-02T02:41:30.444Z,8.1081
2023-04-02T02:42:38.556Z,8.1022
2023-04-02T02:43:46.429Z,7.9938
2023-04-02T02:44:54.504Z,8.0262
2023-04-02T02:46:02.604Z,8.0140
2023-04-02T02:47:10.676Z,8.0377
2023-04-02T02:48:18.846Z,8.1208
2023-04-02T02:49:26.836Z,8.1704
2023-04-02T02:50:34.908Z,8.0848
2023-04-02T02:51:42.973Z,8.0375
2023-04-02T02:52:51.070Z,8.0917
2023-04-02T02:53:59.155Z,8.1304
2023-04-02T02:55:07.228Z,8.1651
2023-04-02T02:56:15.210Z,8.1615
2023-04-02T02:57:23.401Z,8.1676
2023-04-02T02:58:31.317Z,8.2105
2023-04-02T02:59:39.383Z,8.1905
2023-04-02T03:00:47.468Z,8.1945
2023-04-02T03:01:55.492Z,8.2143
2023-04-02T03:03:03.764Z,8.2343
2023-04-02T03:04:11.757Z,8.2872
2023-04-02T03:05:19.833Z,8.2706
2023-04-02T03:06:27.891Z,8.2490
2023-04-02T03:07:35.904Z,8.2902
2023-04-02T03:08:44.003Z,8.3350
2023-04-02T03:09:52.017Z,8.4054
2023-04-02T03:11:00.144Z,8.3114
2023-04-02T03:12:08.196Z,8.2765
2023-04-02T03:13:16.152Z,8.2591
2023-04-02T03:14:24.196Z,8.2277
2023-04-02T03:15:32.300Z,8.2208
2023-04-02T03:16:40.350Z,8.1811
2023-04-02T03:17:48.446Z,8.1968
2023-04-02T03:18:56.555Z,8.1960
2023-04-02T03:20:04.697Z,8.2595
2023-04-02T03:21:12.674Z,8.2341
2023-04-02T03:22:20.809Z,8.2202
2023-04-02T03:23:28.860Z,8.1888
2023-04-02T03:24:36.917Z,8.1985
2023-04-02T03:25:44.968Z,8.1537
2023-04-02T03:26:53.036Z,8.1218
2023-04-02T03:28:01.198Z,8.0026
2023-04-02T03:29:09.182Z,8.0055
2023-04-02T03:30:17.155Z,7.9549
2023-04-02T03:31:25.278Z,7.9805
2023-04-02T03:32:33.379Z,8.0083
2023-04-02T03:33:41.509Z,8.0377
2023-04-02T03:34:49.592Z,7.9475
2023-04-02T03:35:57.630Z,7.9185
2023-04-02T03:37:05.739Z,7.9355
2023-04-02T03:38:13.715Z,7.9854
2023-04-02T03:39:21.869Z,7.9181
2023-04-02T03:40:29.922Z,7.8944
2023-04-02T03:41:37.934Z,7.8861
2023-04-02T03:42:46.112Z,7.9068
2023-04-02T03:43:53.991Z,7.9479
2023-04-02T03:45:02.078Z,7.9473
2023-04-02T03:46:10.163Z,7.9301
2023-04-02T03:47:18.202Z,7.9141
2023-04-02T03:48:26.404Z,7.9770
2023-04-02T03:49:34.476Z,7.9494
2023-04-02T03:50:42.500Z,8.1142
2023-04-02T03:51:50.529Z,8.1008
2023-04-02T03:52:58.697Z,8.0045
2023-04-02T03:54:06.619Z,8.0087
2023-04-02T03:55:14.730Z,8.0489
2023-04-02T03:56:22.770Z,8.0238
2023-04-02T03:57:31.018Z,8.0961
2023-04-02T03:58:38.826Z,8.0404
2023-04-02T03:59:47.347Z,8.0224
2023-04-02T04:00:54.964Z,8.1430
2023-04-02T04:02:03.004Z,8.0657
2023-04-02T04:03:11.327Z,8.0043
2023-04-02T04:04:19.317Z,7.9816
2023-04-02T04:05:27.214Z,8.0556
2023-04-02T04:06:35.313Z,8.0951
2023-04-02T04:07:43.476Z,8.1250
2023-04-02T04:08:51.514Z,8.0978
2023-04-02T04:09:59.593Z,8.1336
2023-04-02T04:11:07.612Z,8.1754
2023-04-02T04:12:15.715Z,8.1577
2023-04-02T04:13:23.717Z,8.0508
2023-04-02T04:14:31.867Z,8.0289
2023-04-02T04:15:39.918Z,8.0360
2023-04-02T04:16:47.969Z,8.0518
2023-04-02T04:17:55.941Z,8.0861
2023-04-02T04:19:03.980Z,8.1403
2023-04-02T04:20:12.074Z,8.1542
2023-04-02T04:21:20.140Z,8.1304
2023-04-02T04:22:28.213Z,8.1649
2023-04-02T04:23:36.270Z,8.2542
2023-04-02T04:24:44.373Z,8.3148
2023-04-02T04:25:52.473Z,8.2710
2023-04-02T04:27:00.549Z,8.2977
2023-04-02T04:28:08.633Z,8.3434
2023-04-02T04:29:16.600Z,8.3331
2023-04-02T04:30:24.670Z,8.2355
2023-04-02T04:31:32.809Z,8.3230
2023-04-02T04:32:40.821Z,8.3196
2023-04-02T04:33:48.776Z,8.3682
2023-04-02T04:34:56.874Z,8.3408
2023-04-02T04:36:04.925Z,8.3770
2023-04-02T04:37:13.116Z,8.3812
2023-04-02T04:38:21.190Z,8.4379
2023-04-02T04:39:29.272Z,8.3776
2023-04-02T04:40:37.234Z,8.3148
2023-04-02T04:41:45.308Z,8.4802
2023-04-02T04:42:53.448Z,8.4890
2023-04-02T04:44:01.474Z,8.4831
2023-04-02T04:45:09.509Z,8.4894
2023-04-02T04:46:17.606Z,8.5052
2023-04-02T04:47:25.545Z,8.5092
2023-04-02T04:48:35.221Z,8.5016
2023-04-02T04:49:46.576Z,8.5349
2023-04-02T04:50:54.694Z,8.5107
2023-04-02T04:52:02.748Z,8.5262
2023-04-02T04:53:10.817Z,8.5447
2023-04-02T04:54:18.897Z,8.5622
2023-04-02T04:55:27.046Z,8.5838
2023-04-02T04:56:34.995Z,8.5409
2023-04-02T04:57:43.061Z,8.5555
2023-04-02T04:58:51.100Z,8.6576
2023-04-02T04:59:59.256Z,8.5699
2023-04-02T05:01:07.247Z,8.5489
2023-04-02T05:02:15.275Z,8.6273
2023-04-02T05:03:23.266Z,8.6534
2023-04-02T05:04:31.425Z,8.6339
2023-04-02T05:05:39.588Z,8.6067
2023-04-02T05:06:47.652Z,8.5981
2023-04-02T05:07:57.006Z,8.5617
2023-04-02T05:09:08.633Z,8.5109
2023-04-02T05:10:16.676Z,8.4999
2023-04-02T05:11:24.772Z,8.5216
2023-04-02T05:12:32.794Z,8.5349
2023-04-02T05:13:40.826Z,8.6025
2023-04-02T05:14:48.777Z,8.6137
2023-04-02T05:15:56.959Z,8.4976
2023-04-02T05:17:04.922Z,8.5124
2023-04-02T05:18:13.068Z,8.3812
2023-04-02T05:19:21.133Z,8.4071
2023-04-02T05:20:29.229Z,8.4749
2023-04-02T05:21:37.263Z,8.3017
2023-04-02T05:22:45.444Z,8.2526
2023-04-02T05:23:53.432Z,8.2345
2023-04-02T05:25:01.513Z,8.2658
2023-04-02T05:26:09.523Z,8.3263
2023-04-02T05:27:17.652Z,8.4285
2023-04-02T05:28:25.701Z,8.4663
2023-04-02T05:29:33.686Z,8.3709
2023-04-02T05:30:41.712Z,8.2643
2023-04-02T05:31:49.814Z,8.3232
2023-04-02T05:32:57.859Z,8.3789
2023-04-02T05:34:06.075Z,8.3213
2023-04-02T05:35:14.107Z,8.3917
2023-04-02T05:36:22.161Z,8.2635
2023-04-02T05:37:30.174Z,8.3682
2023-04-02T05:38:38.261Z,8.5046
2023-04-02T05:39:46.352Z,8.4894
2023-04-02T05:40:54.436Z,8.5666
2023-04-02T05:42:02.505Z,8.5823
2023-04-02T05:43:10.553Z,8.5632
2023-04-02T05:44:18.519Z,8.6500
2023-04-02T05:45:26.613Z,8.7076
2023-04-02T05:46:34.725Z,8.6997
2023-04-02T05:47:42.742Z,8.6763
2023-04-02T05:48:50.916Z,8.7022
2023-04-02T05:49:58.937Z,8.7537
2023-04-02T05:51:07.040Z,8.7495
2023-04-02T05:52:15.116Z,8.7310
2023-04-02T05:53:23.117Z,8.7509
2023-04-02T05:54:31.201Z,8.7770
2023-04-02T05:55:39.232Z,8.7951
2023-04-02T05:56:47.419Z,8.8499
2023-04-02T05:58:10.446Z,8.9208
2023-04-02T05:59:08.214Z,8.8739
2023-04-02T06:00:16.265Z,8.9143
2023-04-02T06:01:24.357Z,8.9632
2023-04-02T06:02:32.543Z,8.9960
2023-04-02T06:03:40.725Z,8.9725
2023-04-02T06:04:48.659Z,9.0047
2023-04-02T06:05:56.725Z,9.0497
2023-04-02T06:07:04.815Z,9.0871
2023-04-02T06:08:12.908Z,9.0066
2023-04-02T06:09:20.970Z,9.1211
2023-04-02T06:10:29.058Z,9.1838
2023-04-02T06:11:37.042Z,9.2697
2023-04-02T06:12:45.159Z,9.2216
2023-04-02T06:13:53.115Z,9.0599
2023-04-02T06:15:01.240Z,9.1299
2023-04-02T06:16:09.236Z,9.0003
2023-04-02T06:17:17.310Z,8.9647
2023-04-02T06:18:25.405Z,9.1310
2023-04-02T06:19:33.543Z,9.2121
2023-04-02T06:20:41.594Z,9.2294
2023-04-02T06:21:49.594Z,9.2697
2023-04-02T06:22:57.754Z,9.3696
2023-04-02T06:24:05.761Z,9.5018
2023-04-02T06:25:13.874Z,9.6279
2023-04-02T06:26:21.953Z,9.5434
2023-04-02T06:27:29.979Z,9.6304
2023-04-02T06:28:37.930Z,9.5384
2023-04-02T06:29:46.002Z,9.5636
2023-04-02T06:30:54.098Z,9.5659
2023-04-02T06:32:02.182Z,9.6599
2023-04-02T06:33:10.239Z,9.7110
2023-04-02T06:34:18.332Z,9.7787
2023-04-02T06:35:26.433Z,9.7850
2023-04-02T06:36:34.596Z,9.9285
2023-04-02T06:37:42.564Z,9.8940
2023-04-02T06:38:50.563Z,9.7364
2023-04-02T06:39:58.657Z,9.8472
2023-04-02T06:41:06.718Z,9.9271
2023-04-02T06:42:14.849Z,9.9245
2023-04-02T06:43:22.841Z,10.0027
2023-04-02T06:44:30.825Z,9.9519
2023-04-02T06:45:38.869Z,9.9346
2023-04-02T06:46:46.967Z,9.9289
2023-04-02T06:47:55.163Z,9.8789
2023-04-02T06:49:03.212Z,9.9146
2023-04-02T06:50:11.256Z,9.9548
2023-04-02T06:51:19.413Z,9.8999
2023-04-02T06:52:27.447Z,9.9109
2023-04-02T06:53:35.501Z,9.9903
2023-04-02T06:54:43.659Z,10.0256
2023-04-02T06:55:51.514Z,10.0597
2023-04-02T06:56:59.644Z,9.9334
2023-04-02T06:58:07.559Z,9.9411
2023-04-02T06:59:15.697Z,10.0093
2023-04-02T07:00:23.757Z,9.9397
2023-04-02T07:01:31.852Z,9.9401
2023-04-02T07:02:39.923Z,10.0290
2023-04-02T07:03:47.929Z,10.0036
2023-04-02T07:04:56.173Z,10.0635
2023-04-02T07:06:04.247Z,10.1133
2023-04-02T07:07:12.192Z,10.0751
2023-04-02T07:08:20.281Z,10.0166
2023-04-02T07:09:28.371Z,10.0151
2023-04-02T07:10:36.443Z,10.1600
2023-04-02T07:11:44.539Z,10.1432
2023-04-02T07:12:52.553Z,10.0515
2023-04-02T07:14:00.660Z,9.9281
2023-04-02T07:15:08.577Z,10.0408
2023-04-02T07:16:16.777Z,10.1398
2023-04-02T07:17:24.775Z,10.1978
2023-04-02T07:18:32.809Z,10.2508
2023-04-02T07:19:40.937Z,10.3744
2023-04-02T07:20:49.007Z,10.3468
2023-04-02T07:21:57.069Z,10.3119
2023-04-02T07:23:05.227Z,10.4513
2023-04-02T07:24:13.276Z,10.4868
2023-04-02T07:25:21.436Z,10.5241
2023-04-02T07:26:29.367Z,10.5957
2023-04-02T07:27:37.522Z,10.6941
2023-04-02T07:28:45.521Z,10.6951
2023-04-02T07:29:53.489Z,10.8137
2023-04-02T07:31:01.496Z,10.7660
2023-04-02T07:32:09.613Z,10.8652
2023-04-02T07:33:17.671Z,11.0138
2023-04-02T07:34:25.815Z,11.0069
2023-04-02T07:35:34.307Z,11.0731
2023-04-02T07:36:41.990Z,10.9215
2023-04-02T07:37:50.057Z,10.7710
2023-04-02T07:38:58.157Z,10.8469
2023-04-02T07:40:06.203Z,10.9760
2023-04-02T07:41:14.273Z,10.9852
2023-04-02T07:42:22.313Z,11.0368
2023-04-02T07:43:30.503Z,10.8879
2023-04-02T07:44:38.519Z,10.9228
2023-04-02T07:45:46.600Z,11.0519
2023-04-02T07:46:54.510Z,10.9922
2023-04-02T07:48:02.602Z,11.0355
2023-04-02T07:49:10.600Z,11.1374
2023-04-02T07:50:18.752Z,11.2308
2023-04-02T07:51:26.858Z,11.3197
2023-04-02T07:52:34.924Z,11.4487
2023-04-02T07:53:42.958Z,11.3626
2023-04-02T07:54:51.115Z,11.5965
2023-04-02T07:55:59.151Z,11.7447
2023-04-02T07:57:07.301Z,11.8561
2023-04-02T07:58:15.220Z,11.8471
2023-04-02T07:59:23.313Z,12.1220
2023-04-02T08:00:31.385Z,12.0951
2023-04-02T08:01:39.406Z,12.0045
2023-04-02T08:02:47.450Z,12.0216
2023-04-02T08:03:55.522Z,11.9743
2023-04-02T08:05:03.531Z,11.9976
2023-04-02T08:06:11.720Z,11.9383
2023-04-02T08:07:19.796Z,11.8910
2023-04-02T08:08:27.926Z,11.9013
2023-04-02T08:09:35.908Z,11.9661
2023-04-02T08:10:43.956Z,12.0596
2023-04-02T08:11:52.040Z,11.9560
2023-04-02T08:13:00.237Z,11.8795
2023-04-02T08:14:08.173Z,11.7231
2023-04-02T08:15:16.222Z,11.4704
2023-04-02T08:16:24.264Z,11.5625
2023-04-02T08:17:32.355Z,11.5074
2023-04-02T08:18:40.373Z,11.3579
2023-04-02T08:19:54.786Z,11.5215
2023-04-02T08:21:01.387Z,11.7463
2023-04-02T08:22:09.477Z,11.8284
2023-04-02T08:23:17.554Z,11.8227
2023-04-02T08:24:25.645Z,11.6176
2023-04-02T08:25:33.920Z,11.6236
2023-04-02T08:26:43.033Z,11.5568
2023-04-02T08:27:54.649Z,11.5576
2023-04-02T08:29:02.763Z,11.2228
2023-04-02T08:30:10.695Z,11.1944
2023-04-02T08:31:18.877Z,11.2112
2023-04-02T08:32:26.851Z,11.2278
2023-04-02T08:33:35.038Z,11.2207
2023-04-02T08:34:43.106Z,11.2100
2023-04-02T08:35:51.236Z,11.2596
2023-04-02T08:36:59.283Z,11.1971
2023-04-02T08:38:07.239Z,11.2194
2023-04-02T08:39:15.304Z,11.2150
2023-04-02T08:40:23.402Z,11.2507
2023-04-02T08:41:31.481Z,11.4792
2023-04-02T08:42:39.510Z,11.5524
2023-04-02T08:43:47.493Z,11.5087
2023-04-02T08:44:55.500Z,11.2959
2023-04-02T08:46:03.582Z,11.1877
2023-04-02T08:47:11.666Z,11.2039
2023-04-02T08:48:19.748Z,11.3127
2023-04-02T08:49:27.793Z,11.4479
2023-04-02T08:50:35.857Z,11.6350
2023-04-02T08:51:44.008Z,11.7691
2023-04-02T08:52:52.079Z,11.9062
2023-04-02T08:54:00.163Z,12.0890
2023-04-02T08:55:08.279Z,11.9652
2023-04-02T08:56:16.218Z,12.0989
2023-04-02T08:57:24.347Z,12.2101
2023-04-02T08:58:32.360Z,12.2940
2023-04-02T08:59:40.529Z,12.3358
2023-04-02T09:00:48.593Z,12.4657
2023-04-02T09:01:56.508Z,12.6877
2023-04-02T09:03:04.542Z,12.8029
2023-04-02T09:04:12.688Z,12.7844
2023-04-02T09:05:20.681Z,12.6072
2023-04-02T09:06:28.876Z,12.5620
2023-04-02T09:07:36.836Z,12.6396
2023-04-02T09:08:44.944Z,12.5570
2023-04-02T09:09:52.970Z,12.7256
2023-04-02T09:11:01.097Z,12.4907
2023-04-02T09:12:09.198Z,12.1990
2023-04-02T09:13:17.177Z,12.1790
2023-04-02T09:14:25.252Z,12.0563
2023-04-02T09:15:33.584Z,11.9755
2023-04-02T09:16:41.288Z,11.8080
2023-04-02T09:17:54.025Z,11.8944
2023-04-02T09:19:02.237Z,12.2036
2023-04-02T09:20:10.474Z,12.2906
2023-04-02T09:21:18.474Z,12.4310
2023-04-02T09:22:26.595Z,12.5830
2023-04-02T09:23:34.679Z,12.7157
2023-04-02T09:24:42.688Z,12.8548
2023-04-02T09:26:03.025Z,12.9807
2023-04-02T09:27:03.690Z,13.1234
2023-04-02T09:28:11.800Z,13.1708
2023-04-02T09:29:19.701Z,13.1550
2023-04-02T09:30:27.744Z,13.2488
2023-04-02T09:31:35.861Z,13.3515
2023-04-02T09:32:43.894Z,13.1970
2023-04-02T09:33:52.087Z,12.9997
2023-04-02T09:35:00.161Z,13.0724
2023-04-02T09:36:08.225Z,13.0102
2023-04-02T09:37:16.204Z,12.9465
2023-04-02T09:38:24.358Z,12.7548
2023-04-02T09:39:32.444Z,12.6720
2023-04-02T09:40:40.480Z,12.7647
2023-04-02T09:42:02.405Z,12.8685
2023-04-02T09:43:01.361Z,12.8279
2023-04-02T09:44:09.417Z,12.7695
2023-04-02T09:45:17.505Z,12.7400
2023-04-02T09:46:25.547Z,12.7552
2023-04-02T09:47:33.766Z,12.8485
2023-04-02T09:48:41.725Z,12.9992
2023-04-02T09:49:49.806Z,13.0507
2023-04-02T09:50:57.943Z,13.1991
2023-04-02T09:52:05.969Z,13.3148
2023-04-02T09:53:14.019Z,13.2689
2023-04-02T09:54:22.106Z,13.4394
2023-04-02T09:55:30.100Z,13.4495
2023-04-02T09:56:38.249Z,13.2948
2023-04-02T09:57:46.138Z,13.3866
2023-04-02T09:58:54.217Z,13.4085
2023-04-02T10:00:02.278Z,13.3825
2023-04-02T10:01:10.373Z,13.4106
2023-04-02T10:02:18.530Z,13.5170
2023-04-02T10:03:26.654Z,13.5389
2023-04-02T10:04:34.613Z,13.5983
2023-04-02T10:05:43.085Z,13.5809
2023-04-02T10:06:50.714Z,13.6318
2023-04-02T10:07:58.840Z,13.5588
2023-04-02T10:09:06.977Z,13.4237
2023-04-02T10:10:14.914Z,13.2570
2023-04-02T10:11:23.448Z,13.0602
2023-04-02T10:12:35.874Z,13.2224
2023-04-02T10:13:43.901Z,13.1836
2023-04-02T10:14:52.006Z,13.3413
2023-04-02T10:16:00.053Z,13.3642
2023-04-02T10:17:08.265Z,13.3265
2023-04-02T10:18:16.231Z,13.3253
2023-04-02T10:19:24.381Z,13.3705
2023-04-02T10:20:36.345Z,13.4594
2023-04-02T10:21:45.318Z,13.4898
2023-04-02T10:22:53.329Z,12.8214
2023-04-02T10:24:01.390Z,12.6932
2023-04-02T10:25:09.484Z,12.7949
2023-04-02T10:26:17.495Z,12.6080
2023-04-02T10:27:25.490Z,12.7050
2023-04-02T10:28:33.569Z,12.7106
2023-04-02T10:29:41.648Z,12.8407
2023-04-02T10:30:49.850Z,13.0329
2023-04-02T10:31:57.927Z,12.7615
2023-04-02T10:33:06.010Z,12.7964
2023-04-02T10:34:13.962Z,12.8334
2023-04-02T10:35:22.063Z,12.4992
2023-04-02T10:36:30.118Z,12.7567
2023-04-02T10:37:38.206Z,12.9475
2023-04-02T10:38:46.178Z,12.8183
2023-04-02T10:39:54.293Z,12.8412
2023-04-02T10:41:02.314Z,12.9368
2023-04-02T10:42:10.481Z,12.9944
2023-04-02T10:43:18.517Z,13.0434
2023-04-02T10:44:26.520Z,13.1550
2023-04-02T10:45:34.752Z,13.1142
2023-04-02T10:46:42.682Z,12.9891
2023-04-02T10:47:50.803Z,12.9053
2023-04-02T10:48:58.828Z,13.0121
2023-04-02T10:50:06.846Z,13.0570
2023-04-02T10:51:14.829Z,12.9631
2023-04-02T10:52:22.856Z,13.0293
2023-04-02T10:53:30.987Z,13.0129
2023-04-02T10:54:39.046Z,13.0650
2023-04-02T10:55:47.199Z,13.2414
2023-04-02T10:56:55.244Z,13.3555
2023-04-02T10:58:03.324Z,13.5739
2023-04-02T10:59:11.402Z,13.6353
2023-04-02T11:00:19.509Z,13.4571
2023-04-02T11:01:27.565Z,13.3785
2023-04-02T11:02:35.621Z,12.8935
2023-04-02T11:03:43.791Z,12.7749
2023-04-02T11:04:51.649Z,12.8202
2023-04-02T11:05:59.678Z,12.8418
2023-04-02T11:07:14.418Z,12.7523
2023-04-02T11:08:20.710Z,12.5853
2023-04-02T11:09:28.806Z,12.7647
2023-04-02T11:10:36.918Z,12.7277
2023-04-02T11:11:45.071Z,12.8080
2023-04-02T11:12:53.004Z,12.7789
2023-04-02T11:14:01.076Z,12.7993
2023-04-02T11:15:09.155Z,12.7894
2023-04-02T11:16:17.305Z,12.8834
2023-04-02T11:17:25.333Z,13.1535
2023-04-02T11:18:33.275Z,13.3885
2023-04-02T11:19:41.308Z,13.4100
2023-04-02T11:20:49.346Z,13.6767
2023-04-02T11:21:59.354Z,13.7673
2023-04-02T11:23:10.560Z,13.4875
2023-04-02T11:24:18.478Z,13.2864
2023-04-02T11:25:26.609Z,13.4960
2023-04-02T11:26:34.596Z,13.7175
2023-04-02T11:27:42.737Z,13.9073
2023-04-02T11:28:50.813Z,14.0955
2023-04-02T11:29:58.874Z,14.0759
2023-04-02T11:31:06.898Z,14.0316
2023-04-02T11:32:14.866Z,14.1154
2023-04-02T11:33:34.138Z,14.1207
2023-04-02T11:34:35.894Z,14.0506
2023-04-02T11:35:44.029Z,13.7928
2023-04-02T11:36:52.122Z,13.7552
2023-04-02T11:38:00.171Z,13.9771
2023-04-02T11:39:17.079Z,14.2729
2023-04-02T11:40:21.161Z,14.5576
2023-04-02T11:41:29.232Z,14.5827
2023-04-02T11:42:37.290Z,14.5569
2023-04-02T11:43:45.329Z,14.5426
2023-04-02T11:44:53.304Z,14.6376
2023-04-02T11:46:01.476Z,14.4650
2023-04-02T11:47:09.490Z,13.7535
2023-04-02T11:48:17.566Z,13.8964
2023-04-02T11:49:25.693Z,14.0076
2023-04-02T11:50:33.856Z,13.8375
2023-04-02T11:51:41.862Z,13.7551
2023-04-02T11:52:49.921Z,13.5554
2023-04-02T11:53:58.001Z,13.6259
2023-04-02T11:55:06.047Z,13.7913
2023-04-02T11:56:14.220Z,13.8151
2023-04-02T11:57:22.276Z,13.2422
2023-04-02T11:58:30.242Z,13.0858
2023-04-02T11:59:38.183Z,12.8420
2023-04-02T12:00:46.300Z,12.5542
2023-04-02T12:01:54.343Z,12.7663
2023-04-02T12:03:02.447Z,13.0531
2023-04-02T12:04:10.604Z,13.1382
2023-04-02T12:05:18.669Z,13.2628
2023-04-02T12:06:26.653Z,13.3352
2023-04-02T12:07:34.886Z,13.2694
2023-04-02T12:08:56.677Z,13.1033
2023-04-02T12:09:55.745Z,13.0661
2023-04-02T12:11:03.842Z,13.2174
2023-04-02T12:12:11.881Z,13.3196
2023-04-02T12:13:19.937Z,13.3373
2023-04-02T12:14:27.926Z,13.2704
2023-04-02T12:15:36.103Z,13.1403
2023-04-02T12:16:44.153Z,12.3486
2023-04-02T12:17:52.231Z,12.4428
2023-04-02T12:19:00.362Z,12.5454
2023-04-02T12:20:08.404Z,12.7373
2023-04-02T12:21:16.393Z,12.8738
2023-04-02T12:22:24.491Z,12.9070
2023-04-02T12:23:32.524Z,12.7972
2023-04-02T12:24:40.657Z,12.8943
2023-04-02T12:25:48.734Z,12.8166
2023-04-02T12:26:56.771Z,12.8317
2023-04-02T12:28:04.719Z,12.8752
2023-04-02T12:29:12.798Z,12.8161
2023-04-02T12:30:20.866Z,12.8567
2023-04-02T12:31:29.016Z,12.9217
2023-04-02T12:32:37.122Z,12.9690
2023-04-02T12:33:45.100Z,12.9620
2023-04-02T12:34:53.161Z,12.8086
2023-04-02T12:36:01.377Z,12.8426
2023-04-02T12:37:09.320Z,12.8738
2023-04-02T12:38:17.396Z,12.7949
2023-04-02T12:39:27.967Z,12.8857
2023-04-02T12:40:38.580Z,12.9776
2023-04-02T12:41:46.303Z,12.9086
2023-04-02T12:42:54.403Z,12.9307
2023-04-02T12:44:02.544Z,12.9213
2023-04-02T12:45:10.546Z,12.9210
2023-04-02T12:46:18.691Z,12.9131
2023-04-02T12:47:26.730Z,12.7516
2023-04-02T12:48:34.888Z,12.7705
2023-04-02T12:49:42.907Z,12.7684
2023-04-02T12:50:50.974Z,12.7771
2023-04-02T12:51:59.066Z,12.7443
2023-04-02T12:53:07.071Z,12.8433
2023-04-02T12:54:15.196Z,12.9385
2023-04-02T12:55:23.296Z,13.0001
2023-04-02T12:56:31.174Z,13.0200
2023-04-02T12:57:39.468Z,12.9515
2023-04-02T12:58:47.327Z,13.0259
2023-04-02T12:59:55.430Z,12.9864
2023-04-02T13:01:03.596Z,12.9633
2023-04-02T13:02:11.604Z,13.0299
2023-04-02T13:03:19.803Z,13.0522
2023-04-02T13:04:27.727Z,13.0419
2023-04-02T13:05:35.848Z,13.0934
2023-04-02T13:06:43.928Z,13.2706
2023-04-02T13:07:51.915Z,13.3513
2023-04-02T13:08:59.969Z,13.5035
2023-04-02T13:10:08.048Z,13.6406
2023-04-02T13:11:16.053Z,13.7291
2023-04-02T13:12:24.151Z,13.7692
2023-04-02T13:13:32.154Z,13.8481
2023-04-02T13:14:40.203Z,13.9979
2023-04-02T13:15:48.448Z,13.9408
2023-04-02T13:16:56.519Z,13.9067
2023-04-02T13:18:04.617Z,13.7800
2023-04-02T13:19:12.604Z,13.6791
2023-04-02T13:20:20.630Z,13.7177
2023-04-02T13:21:28.956Z,13.6978
2023-04-02T13:22:36.873Z,13.7531
2023-04-02T13:23:44.931Z,13.7978
2023-04-02T13:24:52.876Z,13.6782
2023-04-02T13:26:00.877Z,13.4802
2023-04-02T13:27:08.921Z,13.3824
2023-04-02T13:28:17.034Z,13.6952
2023-04-02T13:29:25.118Z,13.8613
2023-04-02T13:30:33.357Z,13.7194
2023-04-02T13:31:41.279Z,13.3637
2023-04-02T13:32:49.369Z,13.2742
2023-04-02T13:33:57.488Z,13.0791
2023-04-02T13:35:05.562Z,12.9211
2023-04-02T13:36:13.574Z,13.1476
2023-04-02T13:37:21.669Z,13.0013
2023-04-02T13:38:29.658Z,12.9002
2023-04-02T13:39:37.792Z,13.1929
2023-04-02T13:40:45.701Z,13.3040
2023-04-02T13:41:53.736Z,13.0060
2023-04-02T13:43:01.808Z,12.9711
2023-04-02T13:44:09.995Z,12.9313
2023-04-02T13:45:17.964Z,12.8510
2023-04-02T13:46:26.154Z,12.8416
2023-04-02T13:47:34.252Z,13.0077
2023-04-02T13:48:42.255Z,12.9732
2023-04-02T13:49:50.272Z,13.1252
2023-04-02T13:50:58.415Z,12.9919
2023-04-02T13:52:06.475Z,13.0596
2023-04-02T13:53:14.585Z,13.0251
2023-04-02T13:54:22.565Z,13.1846
2023-04-02T13:55:30.604Z,13.2748
2023-04-02T13:56:38.613Z,12.9870